Laquey, Missouri
Current Conditions -  °F | °C
As of 9:58 PM on Friday 19 Dec 2014 (Local Time) from KTBN Reporting Station
Overcast Overcast  
Wind Chill: 30°   Ceiling: 500
Heat Index: 35°   Visibility: 10mi
Dew Point: 35°   Wind: 6mph
Humidity: 100%   Direction: 150°SSE
Pressure: 30.2"   Gusts: NA
Location:  37.77°N, 92.3°W
Report Text: KTBN 200358Z AUTO 15005KT 10SM OVC005 02/02 A3020 RMK AO2 SLP239 T00170017
Loading
Personal Weather Stations






























Interactive Weather Map New forecast layout! Learn more

10-Day Weather Forecast

Advertisements
Track Severe Weather on mobile